createdAt,value
2023-02-25T00:00:19.472Z,5.40
2023-02-25T00:01:06.537Z,5.47
2023-02-25T00:02:03.101Z,5.15
2023-02-25T00:02:46.365Z,5.47
2023-02-25T00:03:27.991Z,5.32
2023-02-25T00:04:09.581Z,5.47
2023-02-25T00:04:51.686Z,4.60
2023-02-25T00:05:33.616Z,4.80
2023-02-25T00:06:15.361Z,4.60
2023-02-25T00:06:57.011Z,4.80
2023-02-25T00:07:40.212Z,5.10
2023-02-25T00:08:21.770Z,4.50
2023-02-25T00:09:03.548Z,4.50
2023-02-25T00:09:45.128Z,4.38
2023-02-25T00:10:26.783Z,4.47
2023-02-25T00:11:08.428Z,3.97
2023-02-25T00:11:50.095Z,4.20
2023-02-25T00:12:31.760Z,3.97
2023-02-25T00:13:18.446Z,4.10
2023-02-25T00:14:00.773Z,4.38
2023-02-25T00:14:42.371Z,4.53
2023-02-25T00:15:24.389Z,4.10
2023-02-25T00:16:07.062Z,3.95
2023-02-25T00:16:51.568Z,4.25
2023-02-25T00:17:33.896Z,3.92
2023-02-25T00:18:15.490Z,4.13
2023-02-25T00:18:58.433Z,4.20
2023-02-25T00:19:40.048Z,3.95
2023-02-25T00:20:22.412Z,4.53
2023-02-25T00:21:05.819Z,4.30
2023-02-25T00:21:47.495Z,4.82
2023-02-25T00:22:29.207Z,4.03
2023-02-25T00:23:10.921Z,3.80
2023-02-25T00:23:53.566Z,4.28
2023-02-25T00:24:35.274Z,3.97
2023-02-25T00:25:17.044Z,3.70
2023-02-25T00:26:00.529Z,3.80
2023-02-25T00:26:42.137Z,4.13
2023-02-25T00:27:25.362Z,4.13
2023-02-25T00:28:07.104Z,4.40
2023-02-25T00:28:49.155Z,4.70
2023-02-25T00:29:30.756Z,4.20
2023-02-25T00:30:12.746Z,3.65
2023-02-25T00:30:54.915Z,4.00
2023-02-25T00:31:36.653Z,3.90
2023-02-25T00:32:19.136Z,3.85
2023-02-25T00:33:02.061Z,4.80
2023-02-25T00:33:44.055Z,4.25
2023-02-25T00:34:26.236Z,3.33
2023-02-25T00:35:12.414Z,3.30
2023-02-25T00:35:54.697Z,3.00
2023-02-25T00:36:36.470Z,2.75
2023-02-25T00:37:20.314Z,2.90
2023-02-25T00:38:14.852Z,3.50
2023-02-25T00:38:57.746Z,2.92
2023-02-25T00:39:42.552Z,3.85
2023-02-25T00:40:24.596Z,3.65
2023-02-25T00:41:11.701Z,3.15
2023-02-25T00:41:53.895Z,3.05
2023-02-25T00:42:35.525Z,3.45
2023-02-25T00:43:17.144Z,2.90
2023-02-25T00:44:01.247Z,2.80
2023-02-25T00:44:50.395Z,3.50
2023-02-25T00:45:32.756Z,4.32
2023-02-25T00:46:14.461Z,3.70
2023-02-25T00:46:56.059Z,3.85
2023-02-25T00:47:38.363Z,3.65
2023-02-25T00:48:22.205Z,3.13
2023-02-25T00:49:04.207Z,3.13
2023-02-25T00:49:50.198Z,2.60
2023-02-25T00:50:31.858Z,2.53
2023-02-25T00:51:17.433Z,2.60
2023-02-25T00:52:00.145Z,2.65
2023-02-25T00:52:42.344Z,2.65
2023-02-25T00:53:23.994Z,2.45
2023-02-25T00:54:05.720Z,2.90
2023-02-25T00:54:47.380Z,3.08
2023-02-25T00:55:33.378Z,2.55
2023-02-25T00:56:16.800Z,2.35
2023-02-25T00:56:58.456Z,2.33
2023-02-25T00:57:40.191Z,2.20
2023-02-25T00:58:21.865Z,2.08
2023-02-25T00:59:03.428Z,2.60
2023-02-25T00:59:45.002Z,2.55
2023-02-25T01:00:35.857Z,2.42
2023-02-25T01:01:26.914Z,2.35
2023-02-25T01:02:08.669Z,2.17
2023-02-25T01:02:50.280Z,2.17
2023-02-25T01:03:32.522Z,2.67
2023-02-25T01:04:14.298Z,2.75
2023-02-25T01:04:55.987Z,1.98
2023-02-25T01:05:41.750Z,2.47
2023-02-25T01:06:25.163Z,2.35
2023-02-25T01:07:07.172Z,2.60
2023-02-25T01:07:48.785Z,2.33
2023-02-25T01:08:30.457Z,2.40
2023-02-25T01:09:14.942Z,2.88
2023-02-25T01:09:57.163Z,2.50
2023-02-25T01:10:38.830Z,2.17
2023-02-25T01:11:27.054Z,2.20
2023-02-25T01:12:08.836Z,2.40
2023-02-25T01:12:50.440Z,2.28
2023-02-25T01:13:32.068Z,2.22
2023-02-25T01:14:26.768Z,2.20
2023-02-25T01:15:08.874Z,2.40
2023-02-25T01:15:50.527Z,2.65
2023-02-25T01:16:33.449Z,2.35
2023-02-25T01:17:15.369Z,2.50
2023-02-25T01:17:56.987Z,2.58
2023-02-25T01:18:40.462Z,2.67
2023-02-25T01:19:25.432Z,2.83
2023-02-25T01:20:11.414Z,2.60
2023-02-25T01:20:53.199Z,2.67
2023-02-25T01:21:37.591Z,2.65
2023-02-25T01:22:19.164Z,2.60
2023-02-25T01:23:00.881Z,2.70
2023-02-25T01:23:47.359Z,3.00
2023-02-25T01:24:31.910Z,2.67
2023-02-25T01:25:16.225Z,2.90
2023-02-25T01:25:57.799Z,2.70
2023-02-25T01:26:42.116Z,2.50
2023-02-25T01:27:23.748Z,2.75
2023-02-25T01:28:06.780Z,3.05
2023-02-25T01:28:48.354Z,2.33
2023-02-25T01:29:39.001Z,2.80
2023-02-25T01:30:20.800Z,2.92
2023-02-25T01:31:02.556Z,3.03
2023-02-25T01:31:45.357Z,2.72
2023-02-25T01:32:27.166Z,2.83
2023-02-25T01:33:10.303Z,2.75
2023-02-25T01:33:51.981Z,2.22
2023-02-25T01:34:34.363Z,2.40
2023-02-25T01:35:17.687Z,2.60
2023-02-25T01:36:01.679Z,2.37
2023-02-25T01:36:44.132Z,3.03
2023-02-25T01:37:25.767Z,2.40
2023-02-25T01:38:07.409Z,2.30
2023-02-25T01:38:49.223Z,2.20
2023-02-25T01:39:32.191Z,1.92
2023-02-25T01:40:16.999Z,1.90
2023-02-25T01:41:00.764Z,2.25
2023-02-25T01:41:46.274Z,1.85
2023-02-25T01:42:27.874Z,2.00
2023-02-25T01:43:18.947Z,2.28
2023-02-25T01:44:12.382Z,2.30
2023-02-25T01:45:19.164Z,1.80
2023-02-25T01:46:01.034Z,2.20
2023-02-25T01:46:45.207Z,1.70
2023-02-25T01:47:29.990Z,1.83
2023-02-25T01:48:18.656Z,2.28
2023-02-25T01:49:01.578Z,2.22
2023-02-25T01:49:46.751Z,1.95
2023-02-25T01:50:35.893Z,2.05
2023-02-25T01:51:17.833Z,2.13
2023-02-25T01:52:04.365Z,2.22
2023-02-25T01:52:46.355Z,2.40
2023-02-25T01:53:33.256Z,2.28
2023-02-25T01:54:15.877Z,2.65
2023-02-25T01:54:59.012Z,2.85
2023-02-25T01:55:41.983Z,2.78
2023-02-25T01:56:26.578Z,2.13
2023-02-25T01:57:11.111Z,2.42
2023-02-25T01:57:52.809Z,2.58
2023-02-25T01:58:34.992Z,2.80
2023-02-25T01:59:18.720Z,2.80
2023-02-25T02:00:00.563Z,2.33
2023-02-25T02:00:42.943Z,2.60
2023-02-25T02:01:28.207Z,2.83
2023-02-25T02:02:15.725Z,2.47
2023-02-25T02:02:58.447Z,2.55
2023-02-25T02:03:42.307Z,2.60
2023-02-25T02:04:26.602Z,3.20
2023-02-25T02:05:09.248Z,2.72
2023-02-25T02:06:07.259Z,3.08
2023-02-25T02:06:50.954Z,2.67
2023-02-25T02:07:32.688Z,2.42
2023-02-25T02:08:14.498Z,2.72
2023-02-25T02:08:56.630Z,2.72
2023-02-25T02:09:40.354Z,2.70
2023-02-25T02:10:22.019Z,3.00
2023-02-25T02:11:04.030Z,3.05
2023-02-25T02:11:45.666Z,3.20
2023-02-25T02:12:36.994Z,3.03
2023-02-25T02:13:22.414Z,3.03
2023-02-25T02:14:07.349Z,2.90
2023-02-25T02:14:49.805Z,2.78
2023-02-25T02:15:39.249Z,3.25
2023-02-25T02:16:45.014Z,2.95
2023-02-25T02:17:30.392Z,3.35
2023-02-25T02:18:12.880Z,2.97
2023-02-25T02:19:04.792Z,3.00
2023-02-25T02:19:47.810Z,2.80
2023-02-25T02:20:51.328Z,3.38
2023-02-25T02:21:52.589Z,2.90
2023-02-25T02:22:41.072Z,2.90
2023-02-25T02:23:41.161Z,2.85
2023-02-25T02:24:41.304Z,3.10
2023-02-25T02:25:40.989Z,2.97
2023-02-25T02:26:25.670Z,2.80
2023-02-25T02:27:11.413Z,2.88
2023-02-25T02:28:21.825Z,3.22
2023-02-25T02:29:20.220Z,3.08
2023-02-25T02:30:26.070Z,3.55
2023-02-25T02:31:20.492Z,2.95
2023-02-25T02:32:23.930Z,3.15
2023-02-25T02:33:23.301Z,2.70
2023-02-25T02:34:17.919Z,3.00
2023-02-25T02:35:44.547Z,3.08
2023-02-25T02:36:58.665Z,2.80
2023-02-25T02:37:59.174Z,2.60
2023-02-25T02:39:28.693Z,3.08
2023-02-25T02:40:16.753Z,3.00
2023-02-25T02:41:23.689Z,3.03
2023-02-25T02:42:16.084Z,3.03
2023-02-25T02:43:33.002Z,3.17
2023-02-25T02:44:50.625Z,3.28
2023-02-25T02:45:55.993Z,3.00
2023-02-25T02:46:48.393Z,2.92
2023-02-25T02:47:40.189Z,3.10
2023-02-25T02:48:36.747Z,3.13
2023-02-25T02:49:27.050Z,3.35
2023-02-25T02:50:11.889Z,2.97
2023-02-25T02:51:00.908Z,3.55
2023-02-25T02:51:51.814Z,3.20
2023-02-25T02:52:39.651Z,2.25
2023-02-25T02:53:36.599Z,2.90
2023-02-25T02:54:19.241Z,3.40
2023-02-25T02:55:09.933Z,3.42
2023-02-25T02:55:55.576Z,3.05
2023-02-25T02:56:41.070Z,3.17
2023-02-25T02:57:27.986Z,2.60
2023-02-25T02:58:19.214Z,3.63
2023-02-25T02:59:35.802Z,3.28
2023-02-25T03:00:20.091Z,2.80
2023-02-25T03:01:46.249Z,2.60
2023-02-25T03:02:34.013Z,2.70
2023-02-25T03:03:20.456Z,2.75
2023-02-25T03:04:10.474Z,3.20
2023-02-25T03:04:59.372Z,3.00
2023-02-25T03:05:45.355Z,2.90
2023-02-25T03:06:33.901Z,2.58
2023-02-25T03:07:17.962Z,2.80
2023-02-25T03:08:08.197Z,3.45
2023-02-25T03:08:57.285Z,3.25
2023-02-25T03:09:58.973Z,3.00
2023-02-25T03:10:46.606Z,3.08
2023-02-25T03:11:29.299Z,2.63
2023-02-25T03:12:11.366Z,3.20
2023-02-25T03:12:53.191Z,3.17
2023-02-25T03:13:35.744Z,2.95
2023-02-25T03:14:19.812Z,2.63
2023-02-25T03:15:01.511Z,2.70
2023-02-25T03:15:44.731Z,2.88
2023-02-25T03:16:36.866Z,2.90
2023-02-25T03:17:32.976Z,3.17
2023-02-25T03:18:35.538Z,2.40
2023-02-25T03:19:25.573Z,2.90
2023-02-25T03:20:24.085Z,3.05
2023-02-25T03:21:14.937Z,3.00
2023-02-25T03:22:04.563Z,2.30
2023-02-25T03:22:48.834Z,2.63
2023-02-25T03:23:34.103Z,2.42
2023-02-25T03:24:22.336Z,2.15
2023-02-25T03:25:20.521Z,2.50
2023-02-25T03:26:11.953Z,2.15
2023-02-25T03:26:53.607Z,2.15
2023-02-25T03:27:41.915Z,2.25
2023-02-25T03:28:31.188Z,2.17
2023-02-25T03:29:17.772Z,2.38
2023-02-25T03:30:09.532Z,2.20
2023-02-25T03:31:15.783Z,2.42
2023-02-25T03:32:06.645Z,1.85
2023-02-25T03:32:53.762Z,1.92
2023-02-25T03:33:47.728Z,1.50
2023-02-25T03:34:37.632Z,1.52
2023-02-25T03:35:22.186Z,2.22
2023-02-25T03:36:12.195Z,1.70
2023-02-25T03:37:00.986Z,1.80
2023-02-25T03:37:46.681Z,1.77
2023-02-25T03:38:33.176Z,1.55
2023-02-25T03:39:22.296Z,1.65
2023-02-25T03:40:14.241Z,1.65
2023-02-25T03:40:59.798Z,1.90
2023-02-25T03:41:44.926Z,1.33
2023-02-25T03:42:33.676Z,1.27
2023-02-25T03:43:25.681Z,1.80
2023-02-25T03:44:11.557Z,1.40
2023-02-25T03:44:56.680Z,1.65
2023-02-25T03:45:42.568Z,1.27
2023-02-25T03:46:26.752Z,1.75
2023-02-25T03:47:10.750Z,1.80
2023-02-25T03:47:55.362Z,1.70
2023-02-25T03:48:38.137Z,1.50
2023-02-25T03:49:31.188Z,1.40
2023-02-25T03:50:18.964Z,1.70
2023-02-25T03:51:04.704Z,1.33
2023-02-25T03:51:49.523Z,1.50
2023-02-25T03:52:31.259Z,1.40
2023-02-25T03:53:16.576Z,1.35
2023-02-25T03:54:18.463Z,1.77
2023-02-25T03:55:02.956Z,1.65
2023-02-25T03:55:45.146Z,1.70
2023-02-25T03:56:26.775Z,1.67
2023-02-25T03:57:08.917Z,1.65
2023-02-25T03:57:52.798Z,1.30
2023-02-25T03:58:36.611Z,1.80
2023-02-25T03:59:18.988Z,1.70
2023-02-25T04:00:00.595Z,1.10
2023-02-25T04:00:45.870Z,1.17
2023-02-25T04:01:30.642Z,1.58
2023-02-25T04:02:16.028Z,1.27
2023-02-25T04:02:57.902Z,1.50
2023-02-25T04:03:39.632Z,1.30
2023-02-25T04:04:21.475Z,0.90
2023-02-25T04:05:03.552Z,1.20
2023-02-25T04:05:45.519Z,1.02
2023-02-25T04:06:30.147Z,1.00
2023-02-25T04:07:12.675Z,1.40
2023-02-25T04:07:58.676Z,1.20
2023-02-25T04:08:42.978Z,1.30
2023-02-25T04:09:24.669Z,1.45
2023-02-25T04:10:09.573Z,1.17
2023-02-25T04:10:52.186Z,1.70
2023-02-25T04:11:34.116Z,1.30
2023-02-25T04:12:16.726Z,1.48
2023-02-25T04:12:58.948Z,1.30
2023-02-25T04:13:41.141Z,1.30
2023-02-25T04:14:24.335Z,1.60
2023-02-25T04:15:07.604Z,1.20
2023-02-25T04:15:50.202Z,1.20
2023-02-25T04:16:32.157Z,1.42
2023-02-25T04:17:14.569Z,1.17
2023-02-25T04:17:56.217Z,1.45
2023-02-25T04:18:38.056Z,1.45
2023-02-25T04:19:21.534Z,1.27
2023-02-25T04:20:05.105Z,1.20
2023-02-25T04:20:46.927Z,1.20
2023-02-25T04:21:37.037Z,0.93
2023-02-25T04:22:18.682Z,1.17
2023-02-25T04:23:01.402Z,1.23
2023-02-25T04:23:43.018Z,1.60
2023-02-25T04:24:24.711Z,1.30
2023-02-25T04:25:06.627Z,0.70
2023-02-25T04:25:48.316Z,0.70
2023-02-25T04:26:32.952Z,1.17
2023-02-25T04:27:15.633Z,0.88
2023-02-25T04:27:57.263Z,0.60
2023-02-25T04:28:38.830Z,1.10
2023-02-25T04:29:20.448Z,0.95
2023-02-25T04:30:02.431Z,0.85
2023-02-25T04:30:44.176Z,0.93
2023-02-25T04:31:26.124Z,1.00
2023-02-25T04:32:08.018Z,1.00
2023-02-25T04:32:49.834Z,1.00
2023-02-25T04:33:32.408Z,1.20
2023-02-25T04:34:14.160Z,1.00
2023-02-25T04:34:55.735Z,0.73
2023-02-25T04:35:37.931Z,0.77
2023-02-25T04:36:35.245Z,0.90
2023-02-25T04:37:17.253Z,0.80
2023-02-25T04:37:58.893Z,0.85
2023-02-25T04:38:40.524Z,0.70
2023-02-25T04:39:22.219Z,0.60
2023-02-25T04:40:11.282Z,0.73
2023-02-25T04:40:52.961Z,0.70
2023-02-25T04:41:35.797Z,0.88
2023-02-25T04:42:17.472Z,0.70
2023-02-25T04:42:59.180Z,0.82
2023-02-25T04:43:40.824Z,0.60
2023-02-25T04:44:22.701Z,0.73
2023-02-25T04:45:05.873Z,0.70
2023-02-25T04:45:50.073Z,0.75
2023-02-25T04:46:33.803Z,0.80
2023-02-25T04:47:15.538Z,0.63
2023-02-25T04:47:57.969Z,0.60
2023-02-25T04:48:39.745Z,1.00
2023-02-25T04:49:22.680Z,0.55
2023-02-25T04:50:06.290Z,0.50
2023-02-25T04:50:47.897Z,0.70
2023-02-25T04:51:29.474Z,0.75
2023-02-25T04:52:12.684Z,0.60
2023-02-25T04:52:54.288Z,0.70
2023-02-25T04:53:36.213Z,0.82
2023-02-25T04:54:19.545Z,0.90
2023-02-25T04:55:01.326Z,0.52
2023-02-25T04:55:42.914Z,0.55
2023-02-25T04:56:25.706Z,0.40
2023-02-25T04:57:08.185Z,0.40
2023-02-25T04:57:49.778Z,0.60
2023-02-25T04:58:32.988Z,0.63
2023-02-25T04:59:16.096Z,0.70
2023-02-25T04:59:57.731Z,0.57
2023-02-25T05:00:40.342Z,0.60
2023-02-25T05:01:21.954Z,0.60
2023-02-25T05:02:03.801Z,0.50
2023-02-25T05:02:48.389Z,0.60
2023-02-25T05:03:30.046Z,0.77
2023-02-25T05:04:11.814Z,0.47
2023-02-25T05:04:53.455Z,0.40
2023-02-25T05:05:35.078Z,0.68
2023-02-25T05:06:16.743Z,0.73
2023-02-25T05:06:58.349Z,0.60
2023-02-25T05:07:40.222Z,0.90
2023-02-25T05:08:22.721Z,0.82
2023-02-25T05:09:05.479Z,1.20
2023-02-25T05:09:47.286Z,1.27
2023-02-25T05:10:28.858Z,1.00
2023-02-25T05:11:10.460Z,0.90
2023-02-25T05:11:52.131Z,0.80
2023-02-25T05:12:33.813Z,0.85
2023-02-25T05:13:15.772Z,0.70
2023-02-25T05:13:57.446Z,0.77
2023-02-25T05:14:39.452Z,0.57
2023-02-25T05:15:21.293Z,0.90
2023-02-25T05:16:12.505Z,0.50
2023-02-25T05:16:54.344Z,0.68
2023-02-25T05:17:36.196Z,0.73
2023-02-25T05:18:17.827Z,0.40
2023-02-25T05:18:59.413Z,0.80
2023-02-25T05:19:41.408Z,0.80
2023-02-25T05:20:23.306Z,0.43
2023-02-25T05:21:08.103Z,0.77
2023-02-25T05:21:51.148Z,0.60
2023-02-25T05:22:34.579Z,0.63
2023-02-25T05:23:16.292Z,0.50
2023-02-25T05:23:57.880Z,0.50
2023-02-25T05:24:39.515Z,0.45
2023-02-25T05:25:21.382Z,1.00
2023-02-25T05:26:03.198Z,0.50
2023-02-25T05:26:45.116Z,0.60
2023-02-25T05:27:26.693Z,0.73
2023-02-25T05:28:10.926Z,0.63
2023-02-25T05:28:55.008Z,0.60
2023-02-25T05:29:36.785Z,0.50
2023-02-25T05:30:19.602Z,0.45
2023-02-25T05:31:08.002Z,0.65
2023-02-25T05:31:51.687Z,0.50
2023-02-25T05:32:33.681Z,0.80
2023-02-25T05:33:15.425Z,0.73
2023-02-25T05:33:57.203Z,0.60
2023-02-25T05:34:38.991Z,0.60
2023-02-25T05:35:20.636Z,0.80
2023-02-25T05:36:05.797Z,0.60
2023-02-25T05:36:47.415Z,0.80
2023-02-25T05:37:30.927Z,0.70
2023-02-25T05:38:12.525Z,0.63
2023-02-25T05:38:55.664Z,0.77
2023-02-25T05:39:37.242Z,0.93
2023-02-25T05:40:18.888Z,0.90
2023-02-25T05:41:01.903Z,0.80
2023-02-25T05:41:43.498Z,0.47
2023-02-25T05:42:25.103Z,0.60
2023-02-25T05:43:06.873Z,0.70
2023-02-25T05:43:49.057Z,0.77
2023-02-25T05:44:30.821Z,1.15
2023-02-25T05:45:12.808Z,0.77
2023-02-25T05:45:55.937Z,0.50
2023-02-25T05:46:37.624Z,0.60
2023-02-25T05:47:19.522Z,0.63
2023-02-25T05:48:01.170Z,0.80
2023-02-25T05:48:47.018Z,0.73
2023-02-25T05:49:28.593Z,1.17
2023-02-25T05:50:11.390Z,0.80
2023-02-25T05:51:00.728Z,0.70
2023-02-25T05:51:42.325Z,0.70
2023-02-25T05:52:24.081Z,0.90
2023-02-25T05:53:05.667Z,0.70
2023-02-25T05:53:49.010Z,1.02
2023-02-25T05:54:30.582Z,0.82
2023-02-25T05:55:12.666Z,0.95
2023-02-25T05:55:55.589Z,0.60
2023-02-25T05:56:37.188Z,0.75
2023-02-25T05:57:19.544Z,0.60
2023-02-25T05:58:01.113Z,0.68
2023-02-25T05:58:43.434Z,0.98
2023-02-25T05:59:25.230Z,1.08
2023-02-25T06:00:11.479Z,1.13
2023-02-25T06:00:55.758Z,0.80
2023-02-25T06:01:37.390Z,0.77
2023-02-25T06:02:19.102Z,0.75
2023-02-25T06:03:00.769Z,0.68
2023-02-25T06:03:44.491Z,0.70
2023-02-25T06:04:26.120Z,0.70
2023-02-25T06:05:08.349Z,0.73
2023-02-25T06:05:50.053Z,0.45
2023-02-25T06:06:32.892Z,0.70
2023-02-25T06:07:15.180Z,0.90
2023-02-25T06:07:59.996Z,0.80
2023-02-25T06:08:44.315Z,0.80
2023-02-25T06:09:29.702Z,1.13
2023-02-25T06:10:11.743Z,0.50
2023-02-25T06:10:53.442Z,0.40
2023-02-25T06:11:35.431Z,0.70
2023-02-25T06:12:17.001Z,0.70
2023-02-25T06:12:58.619Z,0.65
2023-02-25T06:13:41.929Z,4.22
2023-02-25T06:14:23.549Z,1.42
2023-02-25T06:15:05.609Z,0.68
2023-02-25T06:15:47.170Z,1.35
2023-02-25T06:16:31.978Z,0.60
2023-02-25T06:17:14.017Z,0.77
2023-02-25T06:17:55.702Z,0.60
2023-02-25T06:18:37.264Z,1.95
2023-02-25T06:19:18.945Z,2.42
2023-02-25T06:20:01.272Z,1.50
2023-02-25T06:20:42.961Z,0.90
2023-02-25T06:21:24.933Z,0.75
2023-02-25T06:22:06.677Z,0.70
2023-02-25T06:22:48.309Z,0.57
2023-02-25T06:23:29.869Z,1.10
2023-02-25T06:24:11.534Z,0.98
2023-02-25T06:24:53.194Z,1.45
2023-02-25T06:25:35.147Z,2.22
2023-02-25T06:26:16.916Z,1.15
2023-02-25T06:26:58.537Z,0.90
2023-02-25T06:27:40.133Z,0.95
2023-02-25T06:28:21.740Z,0.98
2023-02-25T06:29:03.297Z,0.75
2023-02-25T06:29:48.087Z,1.10
2023-02-25T06:30:30.707Z,0.80
2023-02-25T06:31:15.257Z,1.15
2023-02-25T06:31:57.010Z,0.75
2023-02-25T06:32:39.148Z,0.88
2023-02-25T06:33:20.821Z,0.70
2023-02-25T06:34:02.585Z,1.38
2023-02-25T06:34:44.298Z,0.90
2023-02-25T06:35:26.104Z,0.90
2023-02-25T06:36:08.954Z,1.23
2023-02-25T06:36:50.541Z,1.50
2023-02-25T06:37:32.712Z,1.10
2023-02-25T06:38:14.317Z,1.17
2023-02-25T06:38:55.986Z,1.65
2023-02-25T06:39:37.657Z,1.15
2023-02-25T06:40:19.817Z,1.10
2023-02-25T06:41:15.338Z,0.98
2023-02-25T06:41:57.061Z,1.10
2023-02-25T06:42:38.824Z,1.35
2023-02-25T06:43:20.462Z,0.88
2023-02-25T06:44:02.077Z,1.20
2023-02-25T06:44:43.698Z,1.30
2023-02-25T06:45:25.573Z,1.00
2023-02-25T06:46:09.381Z,0.93
2023-02-25T06:46:52.031Z,0.85
2023-02-25T06:47:33.733Z,0.95
2023-02-25T06:48:15.295Z,1.55
2023-02-25T06:48:57.335Z,1.35
2023-02-25T06:49:38.997Z,0.95
2023-02-25T06:50:20.600Z,1.23
2023-02-25T06:51:02.949Z,1.20
2023-02-25T06:51:44.608Z,2.35
2023-02-25T06:52:26.210Z,1.35
2023-02-25T06:53:09.034Z,1.10
2023-02-25T06:53:52.809Z,1.20
2023-02-25T06:54:34.451Z,1.10
2023-02-25T06:55:16.090Z,1.42
2023-02-25T06:55:58.754Z,1.40
2023-02-25T06:56:40.396Z,1.60
2023-02-25T06:57:22.050Z,1.08
2023-02-25T06:58:03.666Z,1.27
2023-02-25T06:58:45.261Z,1.42
2023-02-25T06:59:26.909Z,1.30
2023-02-25T07:00:09.697Z,2.88
2023-02-25T07:00:51.326Z,3.10
2023-02-25T07:01:33.151Z,2.53
2023-02-25T07:02:15.774Z,2.00
2023-02-25T07:02:57.623Z,1.83
2023-02-25T07:03:39.944Z,1.73
2023-02-25T07:04:21.739Z,1.50
2023-02-25T07:05:05.473Z,1.80
2023-02-25T07:05:47.168Z,1.15
2023-02-25T07:06:28.767Z,1.27
2023-02-25T07:07:10.510Z,1.00
2023-02-25T07:07:52.172Z,3.10
2023-02-25T07:08:33.853Z,7.50
2023-02-25T07:09:15.493Z,38.28
2023-02-25T07:09:57.142Z,71.95
2023-02-25T07:10:40.573Z,33.33
2023-02-25T07:11:24.956Z,5.63
2023-02-25T07:12:06.628Z,2.35
2023-02-25T07:12:48.254Z,2.47
2023-02-25T07:13:29.810Z,1.88
2023-02-25T07:14:14.232Z,2.50
2023-02-25T07:14:55.980Z,3.40
2023-02-25T07:15:37.646Z,4.32
2023-02-25T07:16:20.405Z,3.67
2023-02-25T07:17:03.810Z,2.88
2023-02-25T07:17:45.467Z,1.80
2023-02-25T07:18:27.025Z,1.65
2023-02-25T07:19:08.590Z,1.50
2023-02-25T07:19:50.394Z,4.32
2023-02-25T07:20:32.241Z,1.70
2023-02-25T07:21:15.699Z,1.77
2023-02-25T07:21:57.561Z,1.15
2023-02-25T07:22:39.222Z,0.88
2023-02-25T07:23:20.817Z,2.53
2023-02-25T07:24:02.519Z,1.35
2023-02-25T07:24:45.062Z,0.98
2023-02-25T07:25:26.833Z,1.60
2023-02-25T07:26:10.996Z,1.10
2023-02-25T07:26:53.822Z,1.27
2023-02-25T07:27:35.415Z,0.95
2023-02-25T07:28:17.022Z,1.00
2023-02-25T07:28:59.677Z,2.35
2023-02-25T07:29:41.344Z,2.28
2023-02-25T07:30:23.045Z,2.47
2023-02-25T07:31:10.408Z,2.58
2023-02-25T07:31:52.285Z,0.93
2023-02-25T07:32:34.221Z,0.57
2023-02-25T07:33:15.892Z,0.95
2023-02-25T07:33:59.962Z,1.00
2023-02-25T07:34:41.822Z,1.27
2023-02-25T07:35:23.424Z,1.10
2023-02-25T07:36:05.353Z,0.88
2023-02-25T07:36:46.965Z,1.13
2023-02-25T07:37:28.616Z,0.90
2023-02-25T07:38:12.768Z,1.20
2023-02-25T07:38:54.466Z,0.65
2023-02-25T07:39:36.115Z,0.95
2023-02-25T07:40:17.980Z,1.25
2023-02-25T07:41:07.598Z,0.85
2023-02-25T07:41:49.228Z,0.73
2023-02-25T07:42:34.497Z,0.80
2023-02-25T07:43:18.198Z,0.80
2023-02-25T07:43:59.976Z,0.90
2023-02-25T07:44:41.586Z,0.80
2023-02-25T07:45:23.165Z,0.77
2023-02-25T07:46:04.971Z,0.98
2023-02-25T07:46:46.980Z,0.88
2023-02-25T07:47:28.634Z,1.10
2023-02-25T07:48:10.522Z,0.88
2023-02-25T07:48:52.558Z,0.90
2023-02-25T07:49:34.257Z,0.80
2023-02-25T07:50:15.905Z,0.90
2023-02-25T07:51:04.710Z,0.65
2023-02-25T07:51:46.597Z,1.13
2023-02-25T07:52:28.298Z,0.95
2023-02-25T07:53:09.877Z,1.17
2023-02-25T07:53:53.431Z,0.93
2023-02-25T07:54:35.030Z,1.15
2023-02-25T07:55:16.961Z,0.82
2023-02-25T07:55:58.628Z,0.93
2023-02-25T07:56:40.271Z,0.63
2023-02-25T07:57:21.964Z,0.98
2023-02-25T07:58:04.943Z,0.98
2023-02-25T07:58:48.307Z,1.45
2023-02-25T07:59:31.526Z,0.80
2023-02-25T08:00:13.586Z,0.90
2023-02-25T08:00:55.668Z,0.80
2023-02-25T08:01:39.474Z,0.80
2023-02-25T08:02:21.640Z,1.02
2023-02-25T08:03:03.355Z,1.23
2023-02-25T08:03:48.417Z,1.38
2023-02-25T08:04:30.159Z,2.67
2023-02-25T08:05:12.039Z,1.02
2023-02-25T08:05:54.292Z,1.48
2023-02-25T08:06:38.079Z,1.00
2023-02-25T08:07:20.414Z,1.00
2023-02-25T08:08:02.654Z,1.33
2023-02-25T08:08:44.628Z,0.98
2023-02-25T08:09:26.343Z,1.13
2023-02-25T08:10:08.485Z,1.05
2023-02-25T08:10:50.126Z,0.80
2023-02-25T08:11:32.225Z,1.00
2023-02-25T08:12:13.900Z,1.38
2023-02-25T08:12:55.516Z,0.75
2023-02-25T08:13:38.060Z,0.80
2023-02-25T08:14:21.585Z,0.70
2023-02-25T08:15:03.752Z,0.70
2023-02-25T08:15:45.686Z,0.90
2023-02-25T08:16:32.636Z,0.90
2023-02-25T08:17:14.534Z,0.60
2023-02-25T08:17:56.140Z,0.52
2023-02-25T08:18:38.271Z,0.88
2023-02-25T08:19:19.946Z,0.90
2023-02-25T08:20:01.695Z,0.90
2023-02-25T08:20:47.538Z,0.85
2023-02-25T08:21:30.760Z,0.70
2023-02-25T08:22:12.439Z,1.15
2023-02-25T08:22:56.945Z,1.05
2023-02-25T08:23:39.406Z,1.27
2023-02-25T08:24:23.750Z,1.10
2023-02-25T08:25:05.790Z,1.00
2023-02-25T08:25:47.406Z,1.05
2023-02-25T08:26:29.029Z,0.70
2023-02-25T08:27:10.648Z,0.85
2023-02-25T08:27:53.017Z,0.90
2023-02-25T08:28:37.106Z,0.98
2023-02-25T08:29:18.949Z,1.50
2023-02-25T08:30:00.568Z,1.08
2023-02-25T08:30:42.228Z,0.90
2023-02-25T08:31:25.013Z,0.77
2023-02-25T08:32:06.931Z,0.98
2023-02-25T08:32:48.715Z,1.08
2023-02-25T08:33:30.532Z,0.90
2023-02-25T08:34:13.278Z,1.30
2023-02-25T08:34:56.443Z,1.08
2023-02-25T08:35:38.044Z,1.13
2023-02-25T08:36:23.202Z,0.95
2023-02-25T08:37:05.125Z,0.88
2023-02-25T08:37:48.979Z,1.50
2023-02-25T08:38:30.574Z,1.30
2023-02-25T08:39:12.700Z,1.05
2023-02-25T08:39:55.958Z,1.15
2023-02-25T08:40:37.720Z,1.00
2023-02-25T08:41:21.630Z,1.13
2023-02-25T08:42:03.922Z,1.10
2023-02-25T08:42:45.548Z,0.98
2023-02-25T08:43:27.233Z,1.15
2023-02-25T08:44:08.894Z,1.10
2023-02-25T08:44:51.405Z,0.98
2023-02-25T08:45:33.559Z,1.13
2023-02-25T08:46:15.339Z,1.10
2023-02-25T08:46:57.032Z,1.17
2023-02-25T08:47:38.800Z,1.00
2023-02-25T08:48:20.430Z,1.13
2023-02-25T08:49:02.215Z,1.63
2023-02-25T08:49:44.017Z,1.50
2023-02-25T08:50:26.318Z,2.88
2023-02-25T08:51:09.776Z,6.78
2023-02-25T08:51:51.638Z,2.97
2023-02-25T08:52:34.977Z,2.10
2023-02-25T08:53:16.709Z,1.77
2023-02-25T08:53:58.342Z,1.27
2023-02-25T08:54:40.569Z,1.45
2023-02-25T08:55:24.641Z,2.63
2023-02-25T08:56:09.095Z,1.38
2023-02-25T08:56:51.194Z,1.40
2023-02-25T08:57:33.023Z,0.85
2023-02-25T08:58:14.732Z,1.00
2023-02-25T08:58:56.425Z,1.13
2023-02-25T08:59:38.144Z,1.70
2023-02-25T09:00:21.350Z,1.75
2023-02-25T09:01:09.044Z,1.45
2023-02-25T09:01:52.159Z,1.35
2023-02-25T09:02:33.803Z,1.17
2023-02-25T09:03:15.591Z,1.30
2023-02-25T09:03:58.165Z,1.10
2023-02-25T09:04:39.923Z,0.80
2023-02-25T09:05:21.558Z,1.08
2023-02-25T09:06:03.333Z,1.10
2023-02-25T09:06:48.409Z,2.45
2023-02-25T09:07:30.655Z,3.47
2023-02-25T09:08:12.328Z,2.67
2023-02-25T09:08:55.191Z,0.98
2023-02-25T09:09:36.791Z,1.20
2023-02-25T09:10:19.553Z,1.15
2023-02-25T09:11:05.375Z,1.10
2023-02-25T09:11:48.141Z,1.38
2023-02-25T09:12:30.698Z,1.40
2023-02-25T09:13:12.724Z,1.35
2023-02-25T09:13:54.638Z,0.98
2023-02-25T09:14:37.254Z,1.20
2023-02-25T09:15:19.104Z,1.10
2023-02-25T09:16:01.011Z,1.40
2023-02-25T09:16:42.892Z,1.70
2023-02-25T09:17:24.750Z,1.52
2023-02-25T09:18:06.834Z,1.83
2023-02-25T09:18:50.370Z,1.35
2023-02-25T09:19:33.388Z,0.90
2023-02-25T09:20:17.959Z,0.75
2023-02-25T09:20:59.728Z,1.13
2023-02-25T09:21:41.890Z,0.80
2023-02-25T09:22:23.566Z,1.00
2023-02-25T09:23:05.345Z,1.33
2023-02-25T09:23:47.853Z,1.30
2023-02-25T09:24:30.052Z,1.42
2023-02-25T09:25:11.851Z,1.20
2023-02-25T09:25:53.482Z,2.20
2023-02-25T09:26:35.577Z,1.20
2023-02-25T09:27:17.244Z,1.05
2023-02-25T09:27:58.965Z,0.88
2023-02-25T09:28:40.634Z,0.70
2023-02-25T09:29:22.293Z,0.70
2023-02-25T09:30:04.299Z,1.23
2023-02-25T09:30:47.009Z,0.88
2023-02-25T09:31:28.939Z,0.82
2023-02-25T09:32:20.732Z,0.90
2023-02-25T09:33:02.743Z,0.93
2023-02-25T09:33:45.622Z,1.00
2023-02-25T09:34:27.357Z,0.98
2023-02-25T09:35:09.851Z,0.90
2023-02-25T09:35:52.646Z,1.10
2023-02-25T09:36:34.852Z,0.82
2023-02-25T09:37:19.593Z,0.90
2023-02-25T09:38:01.253Z,0.85
2023-02-25T09:38:46.482Z,1.05
2023-02-25T09:39:28.134Z,0.70
2023-02-25T09:40:17.196Z,1.05
2023-02-25T09:40:58.869Z,0.98
2023-02-25T09:42:01.097Z,0.93
2023-02-25T09:42:55.690Z,0.80
2023-02-25T09:43:42.484Z,0.85
2023-02-25T09:44:28.692Z,1.20
2023-02-25T09:45:17.758Z,0.90
2023-02-25T09:46:10.362Z,1.00
2023-02-25T09:47:04.350Z,1.25
2023-02-25T09:47:58.284Z,1.40
2023-02-25T09:49:18.281Z,1.70
2023-02-25T09:50:08.331Z,0.60